Time;durP1;ratioP1;P1;durP2;ratioP2;P2;SDS_P1;SDS_P2;PMS_P1;PMS_P2;Temp;Humidity;BMP_temperature;BMP_pressure;BME280_temperature;BME280_humidity;BME280_pressure;Samples;Min_cycle;Max_cycle;Signal;HPM_P1;HPM_P2
2021/04/29 00:00:30;;;;;;;13.50;7.77;;;14.00;57.40;;;;;;5116567;28;20023;-86
2021/04/29 00:02:56;;;;;;;12.03;6.33;;;13.90;57.90;;;;;;5098399;28;20072;-85
2021/04/29 00:05:26;;;;;;;12.00;4.70;;;13.90;58.60;;;;;;5098878;28;20201;-86
2021/04/29 00:07:51;;;;;;;8.43;4.00;;;14.00;59.60;;;;;;5116701;28;20032;-85
2021/04/29 00:10:21;;;;;;;6.90;3.07;;;14.10;60.70;;;;;;5117143;28;20035;-85
2021/04/29 00:12:46;;;;;;;5.27;2.60;;;14.10;61.40;;;;;;5098815;28;20325;-86
2021/04/29 00:15:14;;;;;;;6.10;2.70;;;14.10;62.00;;;;;;5116602;28;20031;-86
2021/04/29 00:17:40;;;;;;;5.13;2.47;;;14.10;62.40;;;;;;5117599;28;20051;-86
2021/04/29 00:20:08;;;;;;;6.13;2.77;;;14.20;62.70;;;;;;5100596;28;20034;-86
2021/04/29 00:22:34;;;;;;;6.75;2.80;;;14.20;62.90;;;;;;5121310;28;20077;-85
2021/04/29 00:25:00;;;;;;;6.40;2.93;;;14.10;63.40;;;;;;5101109;28;20027;-86
2021/04/29 00:27:25;;;;;;;6.73;3.00;;;14.20;63.70;;;;;;5102282;28;20418;-86
2021/04/29 00:29:51;;;;;;;6.43;2.50;;;14.20;64.00;;;;;;5101103;28;20361;-87
2021/04/29 00:32:17;;;;;;;5.87;2.77;;;14.30;64.30;;;;;;5101555;28;20066;-86
2021/04/29 00:34:42;;;;;;;6.67;2.97;;;14.20;64.70;;;;;;5101776;28;20094;-86
2021/04/29 00:37:08;;;;;;;6.47;2.77;;;14.20;65.00;;;;;;5101539;28;20023;-86
2021/04/29 00:39:33;;;;;;;5.70;3.07;;;14.20;65.30;;;;;;5101131;28;20016;-85
2021/04/29 00:41:59;;;;;;;7.97;2.77;;;14.10;65.50;;;;;;5119715;28;20030;-86
2021/04/29 00:44:25;;;;;;;7.43;3.03;;;14.20;65.70;;;;;;5102069;28;20565;-86
2021/04/29 00:46:50;;;;;;;6.30;3.10;;;14.10;65.90;;;;;;5102170;28;20471;-85
2021/04/29 00:49:16;;;;;;;5.53;2.80;;;14.20;66.10;;;;;;5120904;28;20027;-86
2021/04/29 00:51:42;;;;;;;6.87;2.80;;;14.10;66.10;;;;;;5103553;28;20488;-85
2021/04/29 00:54:08;;;;;;;7.57;3.27;;;14.20;66.40;;;;;;5103175;28;20030;-86
2021/04/29 00:56:34;;;;;;;6.00;3.17;;;14.20;66.60;;;;;;5101145;28;20394;-86
2021/04/29 00:59:00;;;;;;;5.97;2.63;;;14.10;66.60;;;;;;5100972;28;20060;-86
2021/04/29 01:01:26;;;;;;;7.40;3.30;;;14.10;66.80;;;;;;5119484;28;20076;-86
2021/04/29 01:04:15;;;;;;;6.90;3.37;;;14.10;66.60;;;;;;5101359;28;20493;-87
2021/04/29 01:06:48;;;;;;;;;;;14.20;66.60;;;;;;5120313;28;20076;-86
2021/04/29 01:09:33;;;;;;;5.73;3.23;;;14.10;66.50;;;;;;5122363;28;19907;-85
2021/04/29 01:12:23;;;;;;;6.47;3.33;;;14.10;66.40;;;;;;5105028;28;20019;-86
2021/04/29 01:14:52;;;;;;;7.23;3.33;;;14.10;66.60;;;;;;5103170;28;20016;-86
2021/04/29 01:17:19;;;;;;;8.38;3.35;;;14.10;66.80;;;;;;5102676;28;20559;-86
2021/04/29 01:20:05;;;;;;;6.70;2.80;;;14.00;67.10;;;;;;5102471;28;20028;-86
2021/04/29 01:22:34;;;;;;;5.10;2.70;;;14.10;67.50;;;;;;5120564;28;20026;-86
2021/04/29 01:25:06;;;;;;;;;;;14.10;67.80;;;;;;5102899;28;20027;-87
2021/04/29 01:27:33;;;;;;;8.73;3.23;;;14.00;68.10;;;;;;5102064;28;19907;-86
2021/04/29 01:30:01;;;;;;;5.87;2.90;;;14.00;68.40;;;;;;5100729;28;20024;-86
2021/04/29 01:32:27;;;;;;;6.30;3.30;;;14.00;68.60;;;;;;5118694;28;20020;-86
2021/04/29 01:34:54;;;;;;;7.27;3.00;;;14.00;68.70;;;;;;5101383;28;20028;-86
2021/04/29 01:37:21;;;;;;;7.97;3.00;;;14.00;68.90;;;;;;5101645;28;20463;-86
2021/04/29 01:39:46;;;;;;;7.13;3.23;;;14.00;69.20;;;;;;5101470;28;20015;-86
2021/04/29 01:42:12;;;;;;;7.87;2.80;;;14.00;69.40;;;;;;5120042;28;20027;-85
2021/04/29 01:44:39;;;;;;;6.60;2.70;;;14.00;69.60;;;;;;5118197;28;20081;-87
2021/04/29 01:47:05;;;;;;;4.63;2.43;;;13.90;69.90;;;;;;5096656;28;20024;-86
2021/04/29 01:49:32;;;;;;;5.67;2.60;;;13.90;71.00;;;;;;5096165;28;20057;-86
2021/04/29 01:52:00;;;;;;;5.07;2.80;;;13.90;70.60;;;;;;5096617;28;20030;-86
2021/04/29 01:54:25;;;;;;;6.00;3.00;;;13.90;71.00;;;;;;5096618;28;20484;-86
2021/04/29 01:56:51;;;;;;;5.43;2.73;;;13.80;71.00;;;;;;5114613;28;20115;-86
2021/04/29 01:59:18;;;;;;;8.10;2.90;;;13.90;71.30;;;;;;5095976;28;20016;-86
2021/04/29 02:01:46;;;;;;;5.70;3.20;;;13.80;71.30;;;;;;5114552;28;20046;-86
2021/04/29 02:04:12;;;;;;;8.13;2.83;;;13.80;71.30;;;;;;5096291;28;20538;-86
2021/04/29 02:06:40;;;;;;;6.20;3.30;;;13.70;71.50;;;;;;5114740;28;20031;-86
2021/04/29 02:09:08;;;;;;;6.27;3.30;;;13.70;71.50;;;;;;5096171;28;20027;-86
2021/04/29 02:11:41;;;;;;;6.27;3.20;;;13.80;71.30;;;;;;5095940;28;20080;-86
2021/04/29 02:14:09;;;;;;;6.43;3.50;;;13.70;71.80;;;;;;5114871;28;20106;-86
2021/04/29 02:16:42;;;;;;;7.93;3.60;;;13.70;70.50;;;;;;5096323;28;20034;-86
2021/04/29 02:19:09;;;;;;;8.70;4.23;;;13.70;69.90;;;;;;5114254;28;20026;-86
2021/04/29 02:21:37;;;;;;;9.93;4.70;;;13.70;69.10;;;;;;5096418;28;20114;-86
2021/04/29 02:24:04;;;;;;;12.30;4.55;;;13.70;69.20;;;;;;5097004;28;20115;-87
2021/04/29 02:26:32;;;;;;;10.63;4.87;;;13.60;69.00;;;;;;5098650;28;20109;-86
2021/04/29 02:29:00;;;;;;;10.63;5.10;;;13.70;69.20;;;;;;5098095;28;20023;-86
2021/04/29 02:31:26;;;;;;;12.23;5.37;;;13.70;69.00;;;;;;5136368;28;20043;-87
2021/04/29 02:33:52;;;;;;;10.40;5.70;;;13.60;69.00;;;;;;5115211;28;20130;-86
2021/04/29 02:36:18;;;;;;;17.40;6.07;;;13.60;69.30;;;;;;5132777;28;20046;-86
2021/04/29 02:38:44;;;;;;;17.17;5.60;;;13.60;69.40;;;;;;5125526;28;20369;-86
2021/04/29 02:41:12;;;;;;;11.67;5.47;;;13.60;69.80;;;;;;5094781;28;20031;-86
2021/04/29 02:43:38;;;;;;;16.77;6.40;;;13.70;69.90;;;;;;5111284;28;20032;-86
2021/04/29 02:46:04;;;;;;;10.77;6.07;;;13.50;70.30;;;;;;5113828;28;20028;-86
2021/04/29 02:48:30;;;;;;;9.37;6.10;;;13.50;70.60;;;;;;5113663;28;20031;-86
2021/04/29 02:50:59;;;;;;;12.07;6.37;;;13.60;70.80;;;;;;5112974;28;20483;-86
2021/04/29 02:53:25;;;;;;;;;;;13.60;70.90;;;;;;5095503;28;20484;-86
2021/04/29 02:55:50;;;;;;;14.20;7.07;;;13.60;71.30;;;;;;5094865;28;19951;-86
2021/04/29 02:58:17;;;;;;;11.43;6.23;;;13.50;71.60;;;;;;5113306;28;20024;-86
2021/04/29 03:00:44;;;;;;;14.00;6.30;;;13.50;71.80;;;;;;5094467;28;20032;-86
2021/04/29 03:03:10;;;;;;;10.00;6.73;;;13.60;71.90;;;;;;5113322;28;20107;-86
2021/04/29 03:05:37;;;;;;;12.73;6.87;;;13.60;72.10;;;;;;5094795;28;20106;-86
2021/04/29 03:08:04;;;;;;;16.30;7.90;;;13.50;72.50;;;;;;5094837;28;20055;-86
2021/04/29 03:10:30;;;;;;;10.53;6.73;;;13.40;72.80;;;;;;5094466;28;20027;-86
2021/04/29 03:12:59;;;;;;;12.13;6.77;;;13.40;73.00;;;;;;5113021;28;20480;-86
2021/04/29 03:15:25;;;;;;;13.70;7.28;;;13.40;73.20;;;;;;5094591;28;20027;-86
2021/04/29 03:17:50;;;;;;;12.53;7.73;;;13.40;73.40;;;;;;5094727;28;20031;-86
2021/04/29 03:20:16;;;;;;;12.43;7.10;;;13.40;73.70;;;;;;5093974;28;20491;-86
2021/04/29 03:22:42;;;;;;;10.97;7.30;;;13.40;74.10;;;;;;5112801;28;20027;-86
2021/04/29 03:25:08;;;;;;;10.73;7.10;;;13.30;74.20;;;;;;5112893;28;20026;-86
2021/04/29 03:27:33;;;;;;;12.27;7.77;;;13.40;74.30;;;;;;5094552;28;20484;-86
2021/04/29 03:29:59;;;;;;;15.40;7.63;;;13.30;74.90;;;;;;5112558;28;20051;-86
2021/04/29 03:32:25;;;;;;;12.67;7.83;;;13.20;75.00;;;;;;5112818;28;20102;-86
2021/04/29 03:34:51;;;;;;;22.13;9.20;;;13.30;75.10;;;;;;5094277;28;20020;-86
2021/04/29 03:37:17;;;;;;;17.23;8.57;;;13.20;75.30;;;;;;5094814;28;20077;-87
2021/04/29 03:39:44;;;;;;;16.87;8.70;;;13.20;75.60;;;;;;5093963;28;20446;-87
2021/04/29 03:42:11;;;;;;;18.60;9.70;;;13.20;75.80;;;;;;5094100;28;20023;-86
2021/04/29 03:44:38;;;;;;;14.87;8.67;;;13.20;76.00;;;;;;5094066;28;20110;-86
2021/04/29 03:47:04;;;;;;;14.27;9.53;;;13.10;76.00;;;;;;5112445;28;20023;-86
2021/04/29 03:49:31;;;;;;;16.53;9.33;;;13.20;76.10;;;;;;5093849;28;20090;-86
2021/04/29 03:51:56;;;;;;;14.33;9.73;;;13.10;76.30;;;;;;5094343;28;20023;-86
2021/04/29 03:54:23;;;;;;;16.80;10.03;;;13.10;76.40;;;;;;5114679;28;20103;-86
2021/04/29 03:56:49;;;;;;;17.47;10.17;;;13.00;76.60;;;;;;5098437;28;20480;-86
2021/04/29 03:59:15;;;;;;;20.87;11.40;;;13.10;76.70;;;;;;5097811;28;20031;-86
2021/04/29 04:01:41;;;;;;;19.77;11.40;;;13.00;76.70;;;;;;5116628;28;20023;-87
2021/04/29 04:04:06;;;;;;;19.00;11.17;;;13.00;76.70;;;;;;5098093;28;20028;-86
2021/04/29 04:06:32;;;;;;;21.37;12.10;;;13.00;77.00;;;;;;5098255;28;20055;-87
2021/04/29 04:08:57;;;;;;;19.23;12.00;;;13.00;77.10;;;;;;5097831;28;20118;-86
2021/04/29 04:11:23;;;;;;;17.77;12.37;;;13.00;77.10;;;;;;5116632;28;20020;-86
2021/04/29 04:13:49;;;;;;;19.87;12.47;;;13.10;76.70;;;;;;5116475;28;20030;-86
2021/04/29 04:16:15;;;;;;;24.10;13.53;;;13.00;76.10;;;;;;5098070;28;20024;-86
2021/04/29 04:18:42;;;;;;;24.60;13.40;;;12.70;75.10;;;;;;5098290;28;20076;-86
2021/04/29 04:21:08;;;;;;;23.60;13.17;;;12.70;74.60;;;;;;5097609;28;20476;-86
2021/04/29 04:23:34;;;;;;;23.40;12.67;;;12.70;74.10;;;;;;5098104;28;20027;-86
2021/04/29 04:26:01;;;;;;;29.03;13.43;;;12.70;73.70;;;;;;5098156;28;20028;-86
2021/04/29 04:28:40;;;;;;;23.40;12.77;;;12.80;74.20;;;;;;5098369;28;20023;-86
2021/04/29 04:31:15;;;;;;;26.27;13.50;;;12.80;74.00;;;;;;5113689;28;20449;-87
2021/04/29 04:34:00;;;;;;;28.43;13.33;;;12.80;73.00;;;;;;5116758;28;20092;-86
2021/04/29 04:36:54;;;;;;;23.50;12.80;;;12.80;71.90;;;;;;5097479;28;20040;-87
2021/04/29 04:39:21;;;;;;;24.80;12.73;;;12.80;70.50;;;;;;5080223;28;20031;-86
2021/04/29 04:41:51;;;;;;;21.75;13.20;;;12.70;70.10;;;;;;5114423;28;20024;-86
2021/04/29 04:44:17;;;;;;;24.07;12.43;;;12.60;69.80;;;;;;5081146;28;20468;-86
2021/04/29 04:46:45;;;;;;;23.83;12.40;;;12.60;69.60;;;;;;5119677;28;20403;-86
2021/04/29 04:49:11;;;;;;;22.37;12.77;;;12.60;69.70;;;;;;5115890;28;20028;-86
2021/04/29 04:51:36;;;;;;;22.10;11.53;;;12.60;69.80;;;;;;5098926;28;20059;-86
2021/04/29 04:54:02;;;;;;;21.83;12.37;;;12.70;69.70;;;;;;5098966;28;20118;-86
2021/04/29 04:56:28;;;;;;;25.63;12.37;;;12.70;69.70;;;;;;5117395;28;20020;-86
2021/04/29 04:58:54;;;;;;;19.33;10.57;;;12.60;68.30;;;;;;5098204;28;20023;-86
2021/04/29 05:01:21;;;;;;;23.07;11.10;;;12.60;67.60;;;;;;5099115;28;20076;-86
2021/04/29 05:03:54;;;;;;;21.90;11.77;;;12.60;66.70;;;;;;5116192;28;20456;-86
2021/04/29 05:06:38;;;;;;;19.73;10.97;;;12.60;66.30;;;;;;5066530;28;20031;-86
2021/04/29 05:09:06;;;;;;;19.73;11.27;;;12.50;66.40;;;;;;5113408;28;20115;-86
2021/04/29 05:11:34;;;;;;;18.63;11.97;;;12.50;66.40;;;;;;5097277;28;20464;-86
2021/04/29 05:14:00;;;;;;;25.23;15.20;;;12.50;66.50;;;;;;5080587;28;20035;-86
2021/04/29 05:17:04;;;;;;;23.03;13.60;;;12.50;66.70;;;;;;5115248;28;20024;-86
2021/04/29 05:20:15;;;;;;;27.00;12.70;;;12.50;66.60;;;;;;5042644;28;20039;-86
2021/04/29 05:22:50;;;;;;;28.23;12.50;;;12.50;66.70;;;;;;5115197;28;20016;-87
2021/04/29 05:25:16;;;;;;;30.10;12.17;;;12.50;66.90;;;;;;5115408;28;20029;-87
2021/04/29 05:27:42;;;;;;;20.37;12.07;;;12.40;66.90;;;;;;5096985;28;20023;-86
2021/04/29 05:30:08;;;;;;;24.67;14.17;;;12.40;67.00;;;;;;5096674;28;20076;-86
2021/04/29 05:32:34;;;;;;;25.70;15.50;;;12.40;66.90;;;;;;5115853;28;20054;-86
2021/04/29 05:35:00;;;;;;;30.53;14.53;;;12.40;67.70;;;;;;5097252;28;20519;-86
2021/04/29 05:37:25;;;;;;;24.37;13.27;;;12.40;67.30;;;;;;5097111;28;20047;-86
2021/04/29 05:39:52;;;;;;;23.00;12.70;;;12.30;66.90;;;;;;5096299;28;20020;-86
2021/04/29 05:42:18;;;;;;;21.17;12.47;;;12.30;66.50;;;;;;5096713;28;20024;-86
2021/04/29 05:44:44;;;;;;;22.43;12.73;;;12.30;66.60;;;;;;5114862;28;20039;-86
2021/04/29 05:47:10;;;;;;;21.40;12.33;;;12.20;67.10;;;;;;5096666;28;20024;-86
2021/04/29 05:49:35;;;;;;;21.03;12.40;;;12.20;67.40;;;;;;5096217;28;20383;-86
2021/04/29 05:52:01;;;;;;;24.30;12.90;;;12.30;67.30;;;;;;5114623;28;20023;-86
2021/04/29 05:54:26;;;;;;;21.70;13.27;;;12.30;67.40;;;;;;5114691;28;20043;-86
2021/04/29 05:56:53;;;;;;;20.67;13.23;;;12.20;67.70;;;;;;5097576;28;20038;-86
2021/04/29 05:59:19;;;;;;;22.80;14.73;;;12.30;68.30;;;;;;5116647;28;20027;-86
2021/04/29 06:01:44;;;;;;;24.37;12.67;;;12.30;68.80;;;;;;5115842;28;20028;-86
2021/04/29 06:04:10;;;;;;;25.07;15.63;;;12.30;68.90;;;;;;5097880;28;20119;-86
2021/04/29 06:06:36;;;;;;;22.07;13.83;;;12.20;69.10;;;;;;5097834;28;20031;-86
2021/04/29 06:09:02;;;;;;;23.60;14.23;;;12.20;69.00;;;;;;5097382;28;20030;-87
2021/04/29 06:11:27;;;;;;;25.67;13.13;;;12.20;68.90;;;;;;5115723;28;20039;-86
2021/04/29 06:13:53;;;;;;;20.53;13.67;;;12.20;68.60;;;;;;5114899;28;20027;-86
2021/04/29 06:16:19;;;;;;;21.87;13.47;;;12.20;68.40;;;;;;5096117;28;20069;-86
2021/04/29 06:18:44;;;;;;;22.77;12.73;;;12.20;68.00;;;;;;5115486;28;20031;-86
2021/04/29 06:21:10;;;;;;;20.07;12.33;;;12.20;68.00;;;;;;5113894;28;20392;-86
2021/04/29 06:23:35;;;;;;;23.87;13.10;;;12.20;69.00;;;;;;5095857;28;20443;-86
2021/04/29 06:26:02;;;;;;;19.30;13.23;;;12.30;68.80;;;;;;5096053;28;20388;-86
2021/04/29 06:28:28;;;;;;;42.40;14.43;;;12.30;66.80;;;;;;5096013;28;20499;-86
2021/04/29 06:30:54;;;;;;;22.97;13.20;;;12.10;66.30;;;;;;5095251;28;20096;-86
2021/04/29 06:33:24;;;;;;;21.07;12.13;;;12.10;66.60;;;;;;5095767;28;20027;-86
2021/04/29 06:35:53;;;;;;;;;;;12.10;66.30;;;;;;5096271;28;20028;-86
2021/04/29 06:38:19;;;;;;;24.60;12.80;;;12.10;66.30;;;;;;5114009;28;20313;-87
2021/04/29 06:40:44;;;;;;;23.60;12.47;;;12.10;66.90;;;;;;5095117;28;20049;-86
2021/04/29 06:43:10;;;;;;;33.77;13.83;;;12.10;66.00;;;;;;5112543;28;20019;-86
2021/04/29 06:45:36;;;;;;;19.70;12.17;;;12.20;65.70;;;;;;5095351;28;20164;-86
2021/04/29 06:48:02;;;;;;;21.20;12.63;;;12.20;65.50;;;;;;5113517;28;20031;-86
2021/04/29 06:50:28;;;;;;;22.97;13.40;;;12.20;65.20;;;;;;5094923;28;20471;-86
2021/04/29 06:52:53;;;;;;;22.77;12.50;;;12.10;65.60;;;;;;5113720;28;20023;-86
2021/04/29 06:55:19;;;;;;;23.13;12.30;;;12.20;65.50;;;;;;5095547;28;20118;-86
2021/04/29 06:57:45;;;;;;;21.93;12.77;;;12.10;65.80;;;;;;5095547;28;20026;-86
2021/04/29 07:00:11;;;;;;;24.00;13.33;;;12.20;65.70;;;;;;5104340;28;20019;-86
2021/04/29 07:02:37;;;;;;;20.57;12.53;;;12.00;66.20;;;;;;5110789;28;20023;-86
2021/04/29 07:05:03;;;;;;;20.80;12.30;;;12.10;66.50;;;;;;5129820;28;20444;-86
2021/04/29 07:07:29;;;;;;;23.87;12.97;;;12.00;66.20;;;;;;5110633;28;20050;-86
2021/04/29 07:09:54;;;;;;;20.40;12.67;;;12.10;66.20;;;;;;5128203;28;20032;-87
2021/04/29 07:12:20;;;;;;;30.87;12.40;;;12.10;66.50;;;;;;5104638;28;20023;-86
2021/04/29 07:14:47;;;;;;;23.30;12.73;;;12.00;67.00;;;;;;5094770;28;20050;-86
2021/04/29 07:17:13;;;;;;;20.33;13.33;;;12.00;67.50;;;;;;5112738;28;20498;-86
2021/04/29 07:19:38;;;;;;;24.77;13.67;;;12.10;67.40;;;;;;5093743;28;20020;-86
2021/04/29 07:22:04;;;;;;;24.77;14.83;;;12.20;67.50;;;;;;5112611;28;20042;-86
2021/04/29 07:24:30;;;;;;;21.50;13.80;;;12.10;67.50;;;;;;5112696;28;20023;-85
2021/04/29 07:26:55;;;;;;;23.40;14.13;;;12.10;67.70;;;;;;5094620;28;20032;-86
2021/04/29 07:29:24;;;;;;;22.43;13.27;;;12.20;67.70;;;;;;5093452;28;20027;-86
2021/04/29 07:31:50;;;;;;;24.65;15.02;;;12.30;67.80;;;;;;5112627;28;20077;-86
2021/04/29 07:34:15;;;;;;;26.80;15.10;;;12.30;68.00;;;;;;5112430;28;20024;-86
2021/04/29 07:36:41;;;;;;;22.67;15.07;;;12.30;69.00;;;;;;5094250;28;20028;-86
2021/04/29 07:39:06;;;;;;;27.23;16.03;;;12.30;68.50;;;;;;5112168;28;20597;-86
2021/04/29 07:41:32;;;;;;;27.20;16.43;;;12.30;69.20;;;;;;5095097;28;20031;-85
2021/04/29 07:43:58;;;;;;;34.47;17.63;;;12.30;69.30;;;;;;5108426;22;20026;-88
2021/04/29 07:46:25;;;;;;;28.90;18.27;;;12.30;70.20;;;;;;5112614;28;20035;-87
2021/04/29 07:48:51;;;;;;;35.13;18.63;;;12.30;70.70;;;;;;5094367;28;20080;-87
2021/04/29 07:51:17;;;;;;;29.07;18.37;;;12.30;71.10;;;;;;5094854;28;20024;-87
2021/04/29 07:53:42;;;;;;;28.47;18.23;;;12.30;71.50;;;;;;5094993;28;20467;-85
2021/04/29 07:56:08;;;;;;;29.50;18.80;;;12.30;71.80;;;;;;5112783;28;20080;-85
2021/04/29 07:58:33;;;;;;;30.50;18.90;;;12.40;72.20;;;;;;5094534;28;20479;-86
2021/04/29 08:00:59;;;;;;;29.73;20.17;;;12.40;72.40;;;;;;5094176;28;20024;-85
2021/04/29 08:03:25;;;;;;;40.17;21.83;;;12.40;73.20;;;;;;5094723;28;20468;-84
2021/04/29 08:05:51;;;;;;;39.23;23.77;;;12.40;74.40;;;;;;5113261;28;20039;-84
2021/04/29 08:08:17;;;;;;;34.57;23.03;;;12.40;74.80;;;;;;5094689;28;20057;-85
2021/04/29 08:10:43;;;;;;;51.07;29.90;;;12.50;75.30;;;;;;5094443;28;20069;-85
2021/04/29 08:13:11;;;;;;;45.70;29.53;;;12.50;76.90;;;;;;5094862;28;20436;-85
2021/04/29 08:15:41;;;;;;;54.27;32.73;;;12.50;77.50;;;;;;5094578;28;20027;-84
2021/04/29 08:18:07;;;;;;;53.87;33.67;;;12.50;77.80;;;;;;5112839;28;20035;-86
2021/04/29 08:20:33;;;;;;;52.20;33.53;;;12.40;78.10;;;;;;5094268;28;20475;-85
2021/04/29 08:22:58;;;;;;;55.33;33.27;;;12.50;77.90;;;;;;5094915;28;20063;-85
2021/04/29 08:25:24;;;;;;;53.53;34.40;;;12.50;77.70;;;;;;5094401;28;20028;-85
2021/04/29 08:27:50;;;;;;;55.23;34.63;;;12.40;77.50;;;;;;5112730;28;20130;-85
2021/04/29 08:30:16;;;;;;;56.20;35.20;;;12.50;77.90;;;;;;5093861;28;20484;-85
2021/04/29 08:32:42;;;;;;;51.20;34.33;;;12.50;77.70;;;;;;5112606;28;20047;-85
2021/04/29 08:35:08;;;;;;;54.67;36.13;;;12.40;78.00;;;;;;5112696;28;20388;-85
2021/04/29 08:37:35;;;;;;;59.00;35.53;;;12.40;78.00;;;;;;5112573;28;20023;-85
2021/04/29 08:40:01;;;;;;;51.50;35.23;;;12.50;78.00;;;;;;5095158;28;20062;-85
2021/04/29 08:42:28;;;;;;;57.63;34.10;;;12.50;77.10;;;;;;5098047;28;20045;-86
2021/04/29 08:44:54;;;;;;;51.80;34.50;;;12.50;77.20;;;;;;5098035;28;20089;-86
2021/04/29 08:47:20;;;;;;;61.60;35.77;;;12.50;77.20;;;;;;5098111;28;20028;-86
2021/04/29 08:49:46;;;;;;;57.40;35.73;;;12.50;77.30;;;;;;5097580;28;20399;-86
2021/04/29 08:52:11;;;;;;;55.07;35.83;;;12.50;77.90;;;;;;5097908;28;20106;-85
2021/04/29 08:54:38;;;;;;;54.87;35.10;;;12.50;78.10;;;;;;5097750;28;20028;-86
2021/04/29 08:57:05;;;;;;;59.83;36.33;;;12.50;78.10;;;;;;5097844;28;20429;-86
2021/04/29 08:59:31;;;;;;;58.87;35.27;;;12.50;77.90;;;;;;5115909;28;20055;-86
2021/04/29 09:01:57;;;;;;;54.57;34.53;;;12.50;77.70;;;;;;5097704;28;20055;-87
2021/04/29 09:04:23;;;;;;;58.40;33.13;;;12.50;77.50;;;;;;5099270;28;20054;-86
2021/04/29 09:06:50;;;;;;;55.17;31.70;;;12.60;76.60;;;;;;5118076;28;20027;-86
2021/04/29 09:09:17;;;;;;;54.33;32.60;;;12.60;76.30;;;;;;5099279;28;20399;-86
2021/04/29 09:11:56;;;;;;;49.43;30.87;;;12.60;75.60;;;;;;5119549;28;20040;-87
2021/04/29 09:14:33;;;;;;;50.45;30.25;;;12.70;75.40;;;;;;5117581;28;20055;-87
2021/04/29 09:16:59;;;;;;;45.10;29.07;;;12.70;74.80;;;;;;5097330;28;20030;-87
2021/04/29 09:19:27;;;;;;;58.30;29.27;;;12.80;73.90;;;;;;5097464;28;20020;-88
2021/04/29 09:21:54;;;;;;;53.70;28.63;;;12.80;72.80;;;;;;5115864;28;20480;-87
2021/04/29 09:24:40;;;;;;;44.17;28.93;;;12.90;73.40;;;;;;5115937;28;20042;-88
2021/04/29 09:27:10;;;;;;;46.10;28.27;;;13.00;72.30;;;;;;5115756;28;20419;-87
2021/04/29 09:29:36;;;;;;;43.27;26.47;;;13.10;72.10;;;;;;5097196;28;20544;-87
2021/04/29 09:32:02;;;;;;;43.10;25.27;;;13.10;71.20;;;;;;5097384;28;20059;-88
2021/04/29 09:34:38;;;;;;;44.10;26.27;;;13.00;69.80;;;;;;5097512;28;20483;-87
2021/04/29 09:37:04;;;;;;;38.30;25.70;;;13.00;70.50;;;;;;5117885;28;20128;-88
2021/04/29 09:39:33;;;;;;;43.00;26.87;;;13.00;70.10;;;;;;5099519;28;20047;-87
2021/04/29 09:41:58;;;;;;;53.53;27.25;;;13.00;70.90;;;;;;5100331;28;20533;-87
2021/04/29 09:44:26;;;;;;;41.57;26.20;;;12.90;71.10;;;;;;5100338;28;20039;-88
2021/04/29 09:47:00;;;;;;;40.77;26.73;;;12.90;71.10;;;;;;5097693;28;20023;-87
2021/04/29 09:49:37;;;;;;;44.00;27.47;;;12.80;71.20;;;;;;5096968;28;20051;-88
2021/04/29 09:52:25;;;;;;;43.10;26.13;;;12.80;71.40;;;;;;5096559;28;20062;-87
2021/04/29 09:54:52;;;;;;;41.07;26.60;;;12.70;71.20;;;;;;5096763;28;20069;-87
2021/04/29 09:57:28;;;;;;;42.30;25.67;;;12.60;71.10;;;;;;5115076;28;20026;-87
2021/04/29 09:59:59;;;;;;;41.47;25.63;;;12.70;70.60;;;;;;5096459;28;20028;-87
2021/04/29 10:02:26;;;;;;;40.17;26.20;;;12.70;70.80;;;;;;5114898;28;20076;-87
2021/04/29 10:04:54;;;;;;;40.87;24.80;;;12.70;71.10;;;;;;5115010;28;20028;-86
2021/04/29 10:07:22;;;;;;;40.20;26.03;;;12.60;70.50;;;;;;5115196;28;20361;-87
2021/04/29 10:09:49;;;;;;;41.00;26.07;;;12.70;71.20;;;;;;5096390;28;20539;-87
2021/04/29 10:12:17;;;;;;;38.33;26.47;;;12.70;70.60;;;;;;5096523;28;20468;-87
2021/04/29 10:14:48;;;;;;;40.13;25.27;;;12.70;71.20;;;;;;5115234;28;20030;-87
2021/04/29 10:17:17;;;;;;;44.30;26.97;;;12.70;70.50;;;;;;5096858;28;20488;-87
2021/04/29 10:19:50;;;;;;;41.65;26.05;;;12.70;70.80;;;;;;5114618;28;20019;-88
2021/04/29 10:22:16;;;;;;;41.17;26.93;;;12.70;71.00;;;;;;5114750;28;20361;-87
2021/04/29 10:24:47;;;;;;;42.07;26.37;;;12.80;71.00;;;;;;5114492;28;20027;-86
2021/04/29 10:27:25;;;;;;;40.03;22.80;;;12.90;71.00;;;;;;5096332;28;20028;-88
2021/04/29 10:30:08;;;;;;;31.23;20.57;;;12.90;69.10;;;;;;5096037;28;20395;-87
2021/04/29 10:32:35;;;;;;;26.90;17.77;;;12.90;67.50;;;;;;5096201;28;20024;-88
2021/04/29 10:35:14;;;;;;;27.03;18.17;;;12.90;66.40;;;;;;5095764;28;20020;-87
2021/04/29 10:37:40;;;;;;;35.00;18.08;;;12.90;66.30;;;;;;5113868;28;20024;-87
2021/04/29 10:40:07;;;;;;;31.37;18.60;;;12.90;65.60;;;;;;5095407;28;20177;-87
2021/04/29 10:42:44;;;;;;;28.70;17.83;;;12.90;65.70;;;;;;5113652;28;20023;-88
2021/04/29 10:45:11;;;;;;;25.63;17.47;;;12.90;65.60;;;;;;5095371;28;20027;-88
2021/04/29 10:47:37;;;;;;;25.63;16.03;;;12.90;65.90;;;;;;5095743;28;20087;-86
2021/04/29 10:50:16;;;;;;;25.50;17.07;;;13.00;66.50;;;;;;5113520;28;20024;-87
2021/04/29 10:52:52;;;;;;;29.15;15.65;;;13.10;66.70;;;;;;5114330;28;20027;-88
2021/04/29 10:55:23;;;;;;;32.83;15.30;;;13.10;66.60;;;;;;5095854;28;20441;-87
2021/04/29 10:57:49;;;;;;;21.27;12.53;;;13.10;66.50;;;;;;5113682;28;20027;-87
2021/04/29 11:00:15;;;;;;;20.67;12.83;;;13.00;66.30;;;;;;5113243;28;20020;-87
2021/04/29 11:02:41;;;;;;;20.33;12.67;;;13.10;65.60;;;;;;5095572;28;20020;-87
2021/04/29 11:05:20;;;;;;;18.20;12.43;;;13.00;65.70;;;;;;5094997;28;20389;-87
2021/04/29 11:07:47;;;;;;;23.25;13.02;;;13.00;65.00;;;;;;5095318;28;20020;-87
2021/04/29 11:10:14;;;;;;;15.30;10.20;;;13.10;65.10;;;;;;5094953;28;20118;-87
2021/04/29 11:12:47;;;;;;;18.70;10.33;;;13.20;64.00;;;;;;5095474;28;20023;-87
2021/04/29 11:15:24;;;;;;;19.37;10.70;;;13.30;62.60;;;;;;5095983;28;20053;-88
2021/04/29 11:18:07;;;;;;;13.40;9.70;;;13.30;63.10;;;;;;5113575;28;20034;-88
2021/04/29 11:20:49;;;;;;;17.33;11.10;;;13.40;63.20;;;;;;5113935;28;20027;-88
2021/04/29 11:23:26;;;;;;;21.20;10.13;;;13.50;63.30;;;;;;5095794;28;20027;-88
2021/04/29 11:26:15;;;;;;;24.13;9.90;;;13.40;62.90;;;;;;5095647;28;20059;-89
2021/04/29 11:28:41;;;;;;;20.88;10.50;;;13.40;63.10;;;;;;5113473;28;20053;-88
2021/04/29 11:31:07;;;;;;;18.77;9.70;;;13.30;63.50;;;;;;5115271;28;20038;-87
2021/04/29 11:33:34;;;;;;;17.43;9.97;;;13.30;63.80;;;;;;5095682;28;20028;-88
2021/04/29 11:36:21;;;;;;;19.60;9.23;;;13.20;63.50;;;;;;5095249;28;20488;-88
2021/04/29 11:38:56;;;;;;;29.80;9.00;;;13.20;64.10;;;;;;5095565;28;20072;-87
2021/04/29 11:41:22;;;;;;;15.07;9.80;;;13.10;64.90;;;;;;5095061;28;20468;-88
2021/04/29 11:44:02;;;;;;;22.03;9.63;;;13.00;65.30;;;;;;5095000;28;20020;-88
2021/04/29 11:46:29;;;;;;;18.00;7.80;;;13.00;65.50;;;;;;5095245;28;20032;-87
2021/04/29 11:48:59;;;;;;;14.30;7.80;;;13.00;66.00;;;;;;5094524;28;20020;-87
2021/04/29 11:51:29;;;;;;;14.10;7.73;;;12.80;66.40;;;;;;5094977;28;20629;-87
2021/04/29 11:54:02;;;;;;;14.60;7.57;;;12.80;67.10;;;;;;5094556;28;20023;-86
2021/04/29 11:56:42;;;;;;;17.73;8.07;;;12.70;67.70;;;;;;5094604;28;20543;-88
2021/04/29 11:59:08;;;;;;;13.00;7.20;;;12.70;67.90;;;;;;5093805;28;20023;-87
2021/04/29 12:01:38;;;;;;;18.93;7.63;;;12.70;68.10;;;;;;5093946;28;20110;-87
2021/04/29 12:04:22;;;;;;;18.60;8.93;;;12.80;67.80;;;;;;5094196;28;20077;-88
2021/04/29 12:07:02;;;;;;;21.47;9.07;;;12.60;67.70;;;;;;5112211;28;20031;-87
2021/04/29 12:09:29;;;;;;;62.03;10.47;;;12.60;68.10;;;;;;5093507;28;20063;-87
2021/04/29 12:11:55;;;;;;;18.57;7.70;;;12.60;67.90;;;;;;5093914;28;20115;-86
2021/04/29 12:14:26;;;;;;;14.83;6.63;;;12.60;67.90;;;;;;5094581;28;20031;-87
2021/04/29 12:17:00;;;;;;;24.50;6.60;;;12.80;69.10;;;;;;5098108;28;20020;-87
2021/04/29 12:19:31;;;;;;;15.77;6.70;;;12.60;69.20;;;;;;5098046;28;20020;-87
2021/04/29 12:21:58;;;;;;;13.40;6.60;;;12.40;70.30;;;;;;5098123;28;20023;-87
2021/04/29 12:24:25;;;;;;;16.23;7.10;;;12.40;70.50;;;;;;5117225;28;20081;-87
2021/04/29 12:26:51;;;;;;;12.53;6.67;;;12.20;70.50;;;;;;5116792;28;20031;-87
2021/04/29 12:29:22;;;;;;;15.57;6.80;;;12.20;71.30;;;;;;5098244;28;20028;-88
2021/04/29 12:31:58;;;;;;;19.57;7.00;;;12.00;71.20;;;;;;5097738;28;20024;-87
2021/04/29 12:34:25;;;;;;;8.80;5.93;;;11.90;72.40;;;;;;5115896;28;20047;-87
2021/04/29 12:36:52;;;;;;;13.23;6.97;;;11.70;73.10;;;;;;5097571;28;20037;-86
2021/04/29 12:39:20;;;;;;;13.77;7.00;;;11.60;74.10;;;;;;5115716;28;20522;-87